sensor_id;sensor_type;location;lat;lon;timestamp;temperature;humidity
70826;SHT31;58446;41.490;22.098;2022-12-07T00:00:53;10.57;80.72
70826;SHT31;58446;41.490;22.098;2022-12-07T00:03:19;10.20;80.68
70826;SHT31;58446;41.490;22.098;2022-12-07T00:05:45;10.07;81.13
70826;SHT31;58446;41.490;22.098;2022-12-07T00:08:10;10.07;81.45
70826;SHT31;58446;41.490;22.098;2022-12-07T00:10:36;9.82;82.09
70826;SHT31;58446;41.490;22.098;2022-12-07T00:13:02;9.86;82.60
70826;SHT31;58446;41.490;22.098;2022-12-07T00:15:28;9.76;82.85
70826;SHT31;58446;41.490;22.098;2022-12-07T00:17:53;10.10;82.55
70826;SHT31;58446;41.490;22.098;2022-12-07T00:20:19;10.18;82.04
70826;SHT31;58446;41.490;22.098;2022-12-07T00:22:45;10.29;81.79
70826;SHT31;58446;41.490;22.098;2022-12-07T00:25:10;10.41;81.12
70826;SHT31;58446;41.490;22.098;2022-12-07T00:27:36;9.93;81.18
70826;SHT31;58446;41.490;22.098;2022-12-07T00:30:02;9.82;81.75
70826;SHT31;58446;41.490;22.098;2022-12-07T00:32:27;10.10;82.02
70826;SHT31;58446;41.490;22.098;2022-12-07T00:34:53;10.21;81.75
70826;SHT31;58446;41.490;22.098;2022-12-07T00:37:19;9.90;81.36
70826;SHT31;58446;41.490;22.098;2022-12-07T00:39:46;10.18;81.69
70826;SHT31;58446;41.490;22.098;2022-12-07T00:42:11;10.13;81.40
70826;SHT31;58446;41.490;22.098;2022-12-07T00:44:37;10.33;81.30
70826;SHT31;58446;41.490;22.098;2022-12-07T00:47:03;10.34;81.07
70826;SHT31;58446;41.490;22.098;2022-12-07T00:49:28;10.30;80.66
70826;SHT31;58446;41.490;22.098;2022-12-07T00:51:54;10.06;80.36
70826;SHT31;58446;41.490;22.098;2022-12-07T00:54:20;9.62;81.64
70826;SHT31;58446;41.490;22.098;2022-12-07T00:56:45;9.58;82.61
70826;SHT31;58446;41.490;22.098;2022-12-07T00:59:12;9.44;82.64
70826;SHT31;58446;41.490;22.098;2022-12-07T01:01:40;9.62;83.05
70826;SHT31;58446;41.490;22.098;2022-12-07T01:04:06;9.63;82.13
70826;SHT31;58446;41.490;22.098;2022-12-07T01:06:32;9.72;82.92
70826;SHT31;58446;41.490;22.098;2022-12-07T01:08:58;9.95;82.20
70826;SHT31;58446;41.490;22.098;2022-12-07T01:11:25;10.07;81.61
70826;SHT31;58446;41.490;22.098;2022-12-07T01:13:53;10.05;81.38
70826;SHT31;58446;41.490;22.098;2022-12-07T01:16:20;9.97;81.91
70826;SHT31;58446;41.490;22.098;2022-12-07T01:18:48;10.05;81.61
70826;SHT31;58446;41.490;22.098;2022-12-07T01:21:16;10.14;81.27
70826;SHT31;58446;41.490;22.098;2022-12-07T01:23:42;10.03;80.77
70826;SHT31;58446;41.490;22.098;2022-12-07T01:26:13;10.16;80.96
70826;SHT31;58446;41.490;22.098;2022-12-07T01:28:40;10.23;80.65
70826;SHT31;58446;41.490;22.098;2022-12-07T01:31:12;10.09;80.61
70826;SHT31;58446;41.490;22.098;2022-12-07T01:33:41;9.81;80.56
70826;SHT31;58446;41.490;22.098;2022-12-07T01:38:42;10.18;80.58
70826;SHT31;58446;41.490;22.098;2022-12-07T01:41:09;10.12;80.64
70826;SHT31;58446;41.490;22.098;2022-12-07T01:43:35;10.05;80.66
70826;SHT31;58446;41.490;22.098;2022-12-07T01:46:02;9.83;79.45
70826;SHT31;58446;41.490;22.098;2022-12-07T01:48:42;9.86;80.94
70826;SHT31;58446;41.490;22.098;2022-12-07T01:51:10;9.27;79.72
70826;SHT31;58446;41.490;22.098;2022-12-07T01:53:40;9.41;79.67
70826;SHT31;58446;41.490;22.098;2022-12-07T01:56:08;9.48;81.92
70826;SHT31;58446;41.490;22.098;2022-12-07T01:58:36;9.56;81.64
70826;SHT31;58446;41.490;22.098;2022-12-07T02:01:03;9.71;81.05
70826;SHT31;58446;41.490;22.098;2022-12-07T02:03:40;9.55;79.92
70826;SHT31;58446;41.490;22.098;2022-12-07T02:06:08;9.38;81.09
70826;SHT31;58446;41.490;22.098;2022-12-07T02:08:35;9.38;81.97
70826;SHT31;58446;41.490;22.098;2022-12-07T02:11:02;9.04;81.83
70826;SHT31;58446;41.490;22.098;2022-12-07T02:13:30;9.21;81.86
70826;SHT31;58446;41.490;22.098;2022-12-07T02:16:19;9.62;81.39
70826;SHT31;58446;41.490;22.098;2022-12-07T02:27:43;9.63;79.53
70826;SHT31;58446;41.490;22.098;2022-12-07T02:30:17;9.82;80.00
70826;SHT31;58446;41.490;22.098;2022-12-07T02:32:55;9.69;79.80
70826;SHT31;58446;41.490;22.098;2022-12-07T02:35:32;9.79;80.19
70826;SHT31;58446;41.490;22.098;2022-12-07T02:38:12;9.37;79.02
70826;SHT31;58446;41.490;22.098;2022-12-07T02:40:53;9.69;80.49
70826;SHT31;58446;41.490;22.098;2022-12-07T02:43:25;9.52;80.55
70826;SHT31;58446;41.490;22.098;2022-12-07T02:45:54;9.30;79.02
70826;SHT31;58446;41.490;22.098;2022-12-07T02:48:22;9.04;80.15
70826;SHT31;58446;41.490;22.098;2022-12-07T02:50:50;9.28;80.83
70826;SHT31;58446;41.490;22.098;2022-12-07T02:53:39;9.37;81.27
70826;SHT31;58446;41.490;22.098;2022-12-07T02:56:13;9.20;79.19
70826;SHT31;58446;41.490;22.098;2022-12-07T03:13:10;8.41;81.48
70826;SHT31;58446;41.490;22.098;2022-12-07T03:15:55;8.38;82.36
70826;SHT31;58446;41.490;22.098;2022-12-07T03:18:27;8.90;81.76
70826;SHT31;58446;41.490;22.098;2022-12-07T03:21:00;8.97;81.57
70826;SHT31;58446;41.490;22.098;2022-12-07T03:23:27;9.01;81.33
70826;SHT31;58446;41.490;22.098;2022-12-07T03:26:00;8.99;80.53
70826;SHT31;58446;41.490;22.098;2022-12-07T03:28:31;9.08;80.73
70826;SHT31;58446;41.490;22.098;2022-12-07T03:30:59;9.15;80.26
70826;SHT31;58446;41.490;22.098;2022-12-07T03:33:35;9.35;79.81
70826;SHT31;58446;41.490;22.098;2022-12-07T03:36:14;9.27;79.69
70826;SHT31;58446;41.490;22.098;2022-12-07T03:38:46;9.30;79.44
70826;SHT31;58446;41.490;22.098;2022-12-07T03:41:27;9.08;78.68
70826;SHT31;58446;41.490;22.098;2022-12-07T03:43:55;9.10;80.02
70826;SHT31;58446;41.490;22.098;2022-12-07T03:54:53;8.46;80.34
70826;SHT31;58446;41.490;22.098;2022-12-07T03:57:22;8.15;81.48
70826;SHT31;58446;41.490;22.098;2022-12-07T03:59:49;8.70;81.61
70826;SHT31;58446;41.490;22.098;2022-12-07T04:02:16;8.72;78.97
70826;SHT31;58446;41.490;22.098;2022-12-07T04:04:43;8.81;81.11
70826;SHT31;58446;41.490;22.098;2022-12-07T04:07:08;8.59;79.13
70826;SHT31;58446;41.490;22.098;2022-12-07T04:09:34;8.80;80.92
70826;SHT31;58446;41.490;22.098;2022-12-07T04:12:00;8.90;80.65
70826;SHT31;58446;41.490;22.098;2022-12-07T04:14:26;8.97;80.29
70826;SHT31;58446;41.490;22.098;2022-12-07T04:16:54;9.10;79.58
70826;SHT31;58446;41.490;22.098;2022-12-07T04:19:26;9.13;79.28
70826;SHT31;58446;41.490;22.098;2022-12-07T04:21:53;8.91;77.49
70826;SHT31;58446;41.490;22.098;2022-12-07T04:24:19;7.98;77.33
70826;SHT31;58446;41.490;22.098;2022-12-07T04:26:46;7.52;80.25
70826;SHT31;58446;41.490;22.098;2022-12-07T04:29:12;7.15;81.97
70826;SHT31;58446;41.490;22.098;2022-12-07T04:31:38;7.22;82.56
70826;SHT31;58446;41.490;22.098;2022-12-07T04:34:04;7.42;82.73
70826;SHT31;58446;41.490;22.098;2022-12-07T04:36:31;8.06;82.93
70826;SHT31;58446;41.490;22.098;2022-12-07T04:38:57;8.42;81.75
70826;SHT31;58446;41.490;22.098;2022-12-07T04:41:23;8.59;81.07
70826;SHT31;58446;41.490;22.098;2022-12-07T04:44:00;8.69;80.22
70826;SHT31;58446;41.490;22.098;2022-12-07T04:46:27;8.83;79.39
70826;SHT31;58446;41.490;22.098;2022-12-07T04:48:53;8.44;78.46
70826;SHT31;58446;41.490;22.098;2022-12-07T04:51:23;8.65;79.99
70826;SHT31;58446;41.490;22.098;2022-12-07T04:53:49;8.46;77.42
70826;SHT31;58446;41.490;22.098;2022-12-07T04:56:16;7.77;77.34
70826;SHT31;58446;41.490;22.098;2022-12-07T04:58:43;8.15;81.05
70826;SHT31;58446;41.490;22.098;2022-12-07T05:01:10;7.37;79.94
70826;SHT31;58446;41.490;22.098;2022-12-07T05:03:37;7.49;80.43
70826;SHT31;58446;41.490;22.098;2022-12-07T05:06:03;8.05;81.53
70826;SHT31;58446;41.490;22.098;2022-12-07T05:08:29;8.21;81.07
70826;SHT31;58446;41.490;22.098;2022-12-07T05:10:55;8.25;80.20
70826;SHT31;58446;41.490;22.098;2022-12-07T05:13:21;8.57;79.69
70826;SHT31;58446;41.490;22.098;2022-12-07T05:15:47;8.81;78.71
70826;SHT31;58446;41.490;22.098;2022-12-07T05:18:13;8.77;78.49
70826;SHT31;58446;41.490;22.098;2022-12-07T05:20:40;8.75;77.59
70826;SHT31;58446;41.490;22.098;2022-12-07T05:23:06;8.65;78.01
70826;SHT31;58446;41.490;22.098;2022-12-07T05:25:31;8.83;78.43
70826;SHT31;58446;41.490;22.098;2022-12-07T05:27:57;8.90;78.22
70826;SHT31;58446;41.490;22.098;2022-12-07T05:30:23;8.91;78.29
70826;SHT31;58446;41.490;22.098;2022-12-07T05:32:49;8.80;77.13
70826;SHT31;58446;41.490;22.098;2022-12-07T05:35:15;8.59;77.39
70826;SHT31;58446;41.490;22.098;2022-12-07T05:37:41;8.56;77.63
70826;SHT31;58446;41.490;22.098;2022-12-07T05:40:07;8.55;79.23
70826;SHT31;58446;41.490;22.098;2022-12-07T05:42:33;8.65;79.12
70826;SHT31;58446;41.490;22.098;2022-12-07T05:44:59;8.80;78.35
70826;SHT31;58446;41.490;22.098;2022-12-07T05:47:25;8.72;78.46
70826;SHT31;58446;41.490;22.098;2022-12-07T05:49:50;8.65;78.30
70826;SHT31;58446;41.490;22.098;2022-12-07T05:52:16;8.57;78.43
70826;SHT31;58446;41.490;22.098;2022-12-07T05:54:41;8.55;78.65
70826;SHT31;58446;41.490;22.098;2022-12-07T05:57:07;8.50;77.51
70826;SHT31;58446;41.490;22.098;2022-12-07T05:59:33;8.05;75.86
70826;SHT31;58446;41.490;22.098;2022-12-07T06:02:01;7.78;76.58
70826;SHT31;58446;41.490;22.098;2022-12-07T06:04:30;8.05;79.20
70826;SHT31;58446;41.490;22.098;2022-12-07T06:06:57;8.25;79.22
70826;SHT31;58446;41.490;22.098;2022-12-07T06:09:24;8.25;79.17
70826;SHT31;58446;41.490;22.098;2022-12-07T06:11:51;8.49;78.24
70826;SHT31;58446;41.490;22.098;2022-12-07T06:14:35;8.63;77.65
70826;SHT31;58446;41.490;22.098;2022-12-07T06:17:01;8.45;75.46
70826;SHT31;58446;41.490;22.098;2022-12-07T06:19:27;8.35;76.83
70826;SHT31;58446;41.490;22.098;2022-12-07T06:21:53;8.14;75.98
70826;SHT31;58446;41.490;22.098;2022-12-07T06:24:18;7.98;78.16
70826;SHT31;58446;41.490;22.098;2022-12-07T06:26:45;8.14;79.08
70826;SHT31;58446;41.490;22.098;2022-12-07T06:29:11;8.24;79.11
70826;SHT31;58446;41.490;22.098;2022-12-07T06:31:37;8.26;78.19
70826;SHT31;58446;41.490;22.098;2022-12-07T06:34:10;8.04;77.13
70826;SHT31;58446;41.490;22.098;2022-12-07T06:36:36;8.24;78.40
70826;SHT31;58446;41.490;22.098;2022-12-07T06:39:01;8.65;77.66
70826;SHT31;58446;41.490;22.098;2022-12-07T06:41:27;8.77;76.62
70826;SHT31;58446;41.490;22.098;2022-12-07T06:43:53;8.66;76.78
70826;SHT31;58446;41.490;22.098;2022-12-07T06:46:19;8.73;77.03
70826;SHT31;58446;41.490;22.098;2022-12-07T06:48:45;8.77;76.70
70826;SHT31;58446;41.490;22.098;2022-12-07T06:51:10;9.03;76.68
70826;SHT31;58446;41.490;22.098;2022-12-07T06:53:36;9.32;75.66
70826;SHT31;58446;41.490;22.098;2022-12-07T06:56:03;9.39;75.10
70826;SHT31;58446;41.490;22.098;2022-12-07T06:58:29;9.66;74.61
70826;SHT31;58446;41.490;22.098;2022-12-07T07:00:54;9.96;73.84
70826;SHT31;58446;41.490;22.098;2022-12-07T07:03:20;10.20;73.01
70826;SHT31;58446;41.490;22.098;2022-12-07T07:05:46;10.36;72.28
70826;SHT31;58446;41.490;22.098;2022-12-07T07:08:12;10.20;72.70
70826;SHT31;58446;41.490;22.098;2022-12-07T07:10:38;10.13;72.89
70826;SHT31;58446;41.490;22.098;2022-12-07T07:13:04;9.99;73.68
70826;SHT31;58446;41.490;22.098;2022-12-07T07:15:30;10.09;73.54
70826;SHT31;58446;41.490;22.098;2022-12-07T07:17:55;10.53;72.72
70826;SHT31;58446;41.490;22.098;2022-12-07T07:20:21;10.72;71.89
70826;SHT31;58446;41.490;22.098;2022-12-07T07:22:48;10.60;72.27
70826;SHT31;58446;41.490;22.098;2022-12-07T07:25:14;10.69;72.32
70826;SHT31;58446;41.490;22.098;2022-12-07T07:27:40;10.69;72.50
70826;SHT31;58446;41.490;22.098;2022-12-07T07:30:06;11.22;71.58
70826;SHT31;58446;41.490;22.098;2022-12-07T07:32:32;11.29;70.70
70826;SHT31;58446;41.490;22.098;2022-12-07T07:34:58;11.49;70.32
70826;SHT31;58446;41.490;22.098;2022-12-07T07:37:24;11.77;70.26
70826;SHT31;58446;41.490;22.098;2022-12-07T07:39:49;11.83;69.68
70826;SHT31;58446;41.490;22.098;2022-12-07T07:42:15;11.69;70.16
70826;SHT31;58446;41.490;22.098;2022-12-07T07:44:41;11.57;70.75
70826;SHT31;58446;41.490;22.098;2022-12-07T07:47:06;11.57;70.93
70826;SHT31;58446;41.490;22.098;2022-12-07T07:49:32;11.74;70.14
70826;SHT31;58446;41.490;22.098;2022-12-07T07:51:58;11.94;70.36
70826;SHT31;58446;41.490;22.098;2022-12-07T07:54:23;12.22;70.05
70826;SHT31;58446;41.490;22.098;2022-12-07T07:56:49;12.20;70.03
70826;SHT31;58446;41.490;22.098;2022-12-07T07:59:15;12.45;69.24
70826;SHT31;58446;41.490;22.098;2022-12-07T08:01:41;12.41;69.89
70826;SHT31;58446;41.490;22.098;2022-12-07T08:04:07;12.60;67.20
70826;SHT31;58446;41.490;22.098;2022-12-07T08:06:32;12.68;67.53
70826;SHT31;58446;41.490;22.098;2022-12-07T08:08:58;12.70;69.11
70826;SHT31;58446;41.490;22.098;2022-12-07T08:11:24;12.87;67.74
70826;SHT31;58446;41.490;22.098;2022-12-07T08:13:50;13.07;68.46
70826;SHT31;58446;41.490;22.098;2022-12-07T08:16:16;13.20;67.46
70826;SHT31;58446;41.490;22.098;2022-12-07T08:18:42;13.31;67.24
70826;SHT31;58446;41.490;22.098;2022-12-07T08:21:11;13.36;67.04
70826;SHT31;58446;41.490;22.098;2022-12-07T08:23:37;13.37;66.82
70826;SHT31;58446;41.490;22.098;2022-12-07T08:26:04;13.27;67.41
70826;SHT31;58446;41.490;22.098;2022-12-07T08:28:31;13.26;67.51
70826;SHT31;58446;41.490;22.098;2022-12-07T08:31:00;13.28;66.75
70826;SHT31;58446;41.490;22.098;2022-12-07T08:33:26;13.07;68.31
70826;SHT31;58446;41.490;22.098;2022-12-07T08:35:52;13.23;68.68
70826;SHT31;58446;41.490;22.098;2022-12-07T08:38:18;13.48;67.75
70826;SHT31;58446;41.490;22.098;2022-12-07T08:40:43;13.64;67.24
70826;SHT31;58446;41.490;22.098;2022-12-07T08:43:11;13.83;66.38
70826;SHT31;58446;41.490;22.098;2022-12-07T08:45:40;13.88;66.13
70826;SHT31;58446;41.490;22.098;2022-12-07T08:48:07;13.72;67.28
70826;SHT31;58446;41.490;22.098;2022-12-07T08:50:36;13.90;67.09
70826;SHT31;58446;41.490;22.098;2022-12-07T08:53:03;14.01;67.11
70826;SHT31;58446;41.490;22.098;2022-12-07T08:55:29;14.06;65.48
70826;SHT31;58446;41.490;22.098;2022-12-07T08:57:58;14.02;67.12
70826;SHT31;58446;41.490;22.098;2022-12-07T09:00:25;14.05;67.74
70826;SHT31;58446;41.490;22.098;2022-12-07T09:02:51;14.06;67.14
70826;SHT31;58446;41.490;22.098;2022-12-07T09:05:17;14.17;67.26
70826;SHT31;58446;41.490;22.098;2022-12-07T09:07:48;14.29;67.58
70826;SHT31;58446;41.490;22.098;2022-12-07T09:10:15;14.47;67.18
70826;SHT31;58446;41.490;22.098;2022-12-07T09:12:41;14.33;64.83
70826;SHT31;58446;41.490;22.098;2022-12-07T09:15:07;14.57;66.67
70826;SHT31;58446;41.490;22.098;2022-12-07T09:17:33;14.73;66.52
70826;SHT31;58446;41.490;22.098;2022-12-07T09:20:00;14.67;65.59
70826;SHT31;58446;41.490;22.098;2022-12-07T09:22:29;14.76;65.72
70826;SHT31;58446;41.490;22.098;2022-12-07T09:24:57;14.84;66.08
70826;SHT31;58446;41.490;22.098;2022-12-07T09:27:22;14.98;65.31
70826;SHT31;58446;41.490;22.098;2022-12-07T09:29:48;14.98;65.42
70826;SHT31;58446;41.490;22.098;2022-12-07T09:32:14;14.97;65.80
70826;SHT31;58446;41.490;22.098;2022-12-07T09:34:39;15.09;65.30
70826;SHT31;58446;41.490;22.098;2022-12-07T09:37:05;15.21;64.50
70826;SHT31;58446;41.490;22.098;2022-12-07T09:39:31;15.08;64.81
70826;SHT31;58446;41.490;22.098;2022-12-07T09:41:57;15.11;64.30
70826;SHT31;58446;41.490;22.098;2022-12-07T09:44:25;14.95;64.44
70826;SHT31;58446;41.490;22.098;2022-12-07T09:46:52;14.94;64.82
70826;SHT31;58446;41.490;22.098;2022-12-07T09:49:23;14.92;64.90
70826;SHT31;58446;41.490;22.098;2022-12-07T09:54:35;14.94;64.87
70826;SHT31;58446;41.490;22.098;2022-12-07T09:57:02;14.97;65.69
70826;SHT31;58446;41.490;22.098;2022-12-07T09:59:28;15.08;65.66
70826;SHT31;58446;41.490;22.098;2022-12-07T10:01:55;15.14;65.75
70826;SHT31;58446;41.490;22.098;2022-12-07T10:04:23;15.18;65.39
70826;SHT31;58446;41.490;22.098;2022-12-07T10:06:50;15.27;65.13
70826;SHT31;58446;41.490;22.098;2022-12-07T10:09:19;15.35;65.06
70826;SHT31;58446;41.490;22.098;2022-12-07T10:12:04;15.35;65.07
70826;SHT31;58446;41.490;22.098;2022-12-07T10:14:33;15.40;65.15
70826;SHT31;58446;41.490;22.098;2022-12-07T10:16:59;15.42;65.12
70826;SHT31;58446;41.490;22.098;2022-12-07T10:19:32;15.46;64.30
70826;SHT31;58446;41.490;22.098;2022-12-07T10:22:12;15.42;64.61
70826;SHT31;58446;41.490;22.098;2022-12-07T10:24:39;15.50;65.33
70826;SHT31;58446;41.490;22.098;2022-12-07T10:27:30;15.52;65.79
70826;SHT31;58446;41.490;22.098;2022-12-07T10:29:57;15.60;64.98
70826;SHT31;58446;41.490;22.098;2022-12-07T10:32:33;15.70;63.74
70826;SHT31;58446;41.490;22.098;2022-12-07T10:35:25;15.63;64.18
70826;SHT31;58446;41.490;22.098;2022-12-07T10:37:52;15.49;63.47
70826;SHT31;58446;41.490;22.098;2022-12-07T10:40:31;15.08;65.90
70826;SHT31;58446;41.490;22.098;2022-12-07T10:48:27;14.56;66.03
70826;SHT31;58446;41.490;22.098;2022-12-07T10:56:21;14.50;65.15
70826;SHT31;58446;41.490;22.098;2022-12-07T11:01:48;14.56;64.37
70826;SHT31;58446;41.490;22.098;2022-12-07T11:16:11;14.89;64.61
70826;SHT31;58446;41.490;22.098;2022-12-07T11:24:16;14.99;63.15
70826;SHT31;58446;41.490;22.098;2022-12-07T11:34:59;14.39;62.88
70826;SHT31;58446;41.490;22.098;2022-12-07T11:37:35;14.36;62.77
70826;SHT31;58446;41.490;22.098;2022-12-07T11:45:33;14.34;62.65
70826;SHT31;58446;41.490;22.098;2022-12-07T11:48:20;14.33;62.15
70826;SHT31;58446;41.490;22.098;2022-12-07T11:50:51;14.33;63.27
70826;SHT31;58446;41.490;22.098;2022-12-07T11:53:22;14.34;63.95
70826;SHT31;58446;41.490;22.098;2022-12-07T11:58:38;14.40;63.58
70826;SHT31;58446;41.490;22.098;2022-12-07T12:01:13;14.44;62.67
70826;SHT31;58446;41.490;22.098;2022-12-07T12:06:31;14.66;65.75
70826;SHT31;58446;41.490;22.098;2022-12-07T12:19:34;14.48;67.04
70826;SHT31;58446;41.490;22.098;2022-12-07T12:22:17;14.50;68.17
70826;SHT31;58446;41.490;22.098;2022-12-07T12:24:46;14.46;68.04
70826;SHT31;58446;41.490;22.098;2022-12-07T12:27:40;14.39;68.68
70826;SHT31;58446;41.490;22.098;2022-12-07T12:30:37;14.33;68.04
70826;SHT31;58446;41.490;22.098;2022-12-07T12:33:16;14.36;68.59
70826;SHT31;58446;41.490;22.098;2022-12-07T12:35:45;14.43;68.43
70826;SHT31;58446;41.490;22.098;2022-12-07T12:38:32;14.51;69.04
70826;SHT31;58446;41.490;22.098;2022-12-07T12:41:01;14.40;69.50
70826;SHT31;58446;41.490;22.098;2022-12-07T12:43:48;14.29;70.01
70826;SHT31;58446;41.490;22.098;2022-12-07T12:51:56;14.09;70.10
70826;SHT31;58446;41.490;22.098;2022-12-07T12:54:34;14.09;70.64
70826;SHT31;58446;41.490;22.098;2022-12-07T12:59:35;14.08;70.57
70826;SHT31;58446;41.490;22.098;2022-12-07T13:02:23;14.10;70.73
70826;SHT31;58446;41.490;22.098;2022-12-07T13:05:01;14.09;71.01
70826;SHT31;58446;41.490;22.098;2022-12-07T13:15:55;14.13;70.65
70826;SHT31;58446;41.490;22.098;2022-12-07T13:18:39;14.06;69.94
70826;SHT31;58446;41.490;22.098;2022-12-07T13:26:23;14.01;70.98
70826;SHT31;58446;41.490;22.098;2022-12-07T13:29:05;13.96;71.42
70826;SHT31;58446;41.490;22.098;2022-12-07T13:34:04;13.96;71.34
70826;SHT31;58446;41.490;22.098;2022-12-07T13:36:38;13.90;71.26
70826;SHT31;58446;41.490;22.098;2022-12-07T13:41:42;13.85;72.02
70826;SHT31;58446;41.490;22.098;2022-12-07T13:44:15;13.85;72.05
70826;SHT31;58446;41.490;22.098;2022-12-07T13:47:05;13.72;72.08
70826;SHT31;58446;41.490;22.098;2022-12-07T13:49:38;13.72;72.23
70826;SHT31;58446;41.490;22.098;2022-12-07T13:54:58;13.68;72.85
70826;SHT31;58446;41.490;22.098;2022-12-07T13:57:25;13.65;72.60
70826;SHT31;58446;41.490;22.098;2022-12-07T13:59:52;13.65;72.43
70826;SHT31;58446;41.490;22.098;2022-12-07T14:02:30;13.64;72.18
70826;SHT31;58446;41.490;22.098;2022-12-07T14:05:15;13.61;71.85
70826;SHT31;58446;41.490;22.098;2022-12-07T14:10:41;13.54;72.47
70826;SHT31;58446;41.490;22.098;2022-12-07T14:15:52;13.51;73.09
70826;SHT31;58446;41.490;22.098;2022-12-07T14:21:16;13.44;73.65
70826;SHT31;58446;41.490;22.098;2022-12-07T14:23:44;13.41;73.57
70826;SHT31;58446;41.490;22.098;2022-12-07T14:26:15;13.43;73.59
70826;SHT31;58446;41.490;22.098;2022-12-07T14:28:43;13.41;73.59
70826;SHT31;58446;41.490;22.098;2022-12-07T14:31:27;13.40;73.81
70826;SHT31;58446;41.490;22.098;2022-12-07T14:33:52;13.38;74.00
70826;SHT31;58446;41.490;22.098;2022-12-07T14:36:18;13.33;74.02
70826;SHT31;58446;41.490;22.098;2022-12-07T14:38:44;13.37;73.95
70826;SHT31;58446;41.490;22.098;2022-12-07T14:41:16;13.34;73.81
70826;SHT31;58446;41.490;22.098;2022-12-07T14:44:02;13.23;73.96
70826;SHT31;58446;41.490;22.098;2022-12-07T14:46:27;13.20;74.01
70826;SHT31;58446;41.490;22.098;2022-12-07T14:48:53;13.21;74.09
70826;SHT31;58446;41.490;22.098;2022-12-07T14:51:19;13.24;73.88
70826;SHT31;58446;41.490;22.098;2022-12-07T14:53:48;13.21;74.12
70826;SHT31;58446;41.490;22.098;2022-12-07T14:56:15;13.21;74.14
70826;SHT31;58446;41.490;22.098;2022-12-07T14:58:41;13.17;74.11
70826;SHT31;58446;41.490;22.098;2022-12-07T15:01:07;13.13;74.12
70826;SHT31;58446;41.490;22.098;2022-12-07T15:03:32;13.08;74.28
70826;SHT31;58446;41.490;22.098;2022-12-07T15:06:00;13.10;74.19
70826;SHT31;58446;41.490;22.098;2022-12-07T15:08:26;13.04;74.31
70826;SHT31;58446;41.490;22.098;2022-12-07T15:10:52;13.06;74.29
70826;SHT31;58446;41.490;22.098;2022-12-07T15:13:18;13.03;74.40
70826;SHT31;58446;41.490;22.098;2022-12-07T15:16:02;12.99;74.52
70826;SHT31;58446;41.490;22.098;2022-12-07T15:18:28;13.00;74.55
70826;SHT31;58446;41.490;22.098;2022-12-07T15:20:54;13.02;74.66
70826;SHT31;58446;41.490;22.098;2022-12-07T15:23:21;12.97;74.83
70826;SHT31;58446;41.490;22.098;2022-12-07T15:25:48;12.93;74.97
70826;SHT31;58446;41.490;22.098;2022-12-07T15:28:14;12.90;75.16
70826;SHT31;58446;41.490;22.098;2022-12-07T15:30:41;12.87;75.44
70826;SHT31;58446;41.490;22.098;2022-12-07T15:33:11;12.86;75.35
70826;SHT31;58446;41.490;22.098;2022-12-07T15:35:44;12.79;75.70
70826;SHT31;58446;41.490;22.098;2022-12-07T15:38:10;12.76;75.73
70826;SHT31;58446;41.490;22.098;2022-12-07T15:40:37;12.72;76.01
70826;SHT31;58446;41.490;22.098;2022-12-07T15:43:03;12.73;75.99
70826;SHT31;58446;41.490;22.098;2022-12-07T15:45:30;12.69;76.22
70826;SHT31;58446;41.490;22.098;2022-12-07T15:47:55;12.62;76.40
70826;SHT31;58446;41.490;22.098;2022-12-07T15:50:21;12.58;76.61
70826;SHT31;58446;41.490;22.098;2022-12-07T15:52:47;12.56;76.77
70826;SHT31;58446;41.490;22.098;2022-12-07T15:55:13;12.53;77.00
70826;SHT31;58446;41.490;22.098;2022-12-07T15:57:39;12.52;77.22
70826;SHT31;58446;41.490;22.098;2022-12-07T16:00:06;12.46;77.53
70826;SHT31;58446;41.490;22.098;2022-12-07T16:02:32;12.38;77.81
70826;SHT31;58446;41.490;22.098;2022-12-07T16:04:58;12.36;78.06
70826;SHT31;58446;41.490;22.098;2022-12-07T16:07:24;12.35;78.13
70826;SHT31;58446;41.490;22.098;2022-12-07T16:09:49;12.35;78.30
70826;SHT31;58446;41.490;22.098;2022-12-07T16:12:15;12.34;78.20
70826;SHT31;58446;41.490;22.098;2022-12-07T16:14:41;12.31;78.37
70826;SHT31;58446;41.490;22.098;2022-12-07T16:17:08;12.27;78.63
70826;SHT31;58446;41.490;22.098;2022-12-07T16:19:34;12.22;78.60
70826;SHT31;58446;41.490;22.098;2022-12-07T16:22:01;12.13;78.95
70826;SHT31;58446;41.490;22.098;2022-12-07T16:24:26;12.10;79.09
70826;SHT31;58446;41.490;22.098;2022-12-07T16:26:52;12.08;79.11
70826;SHT31;58446;41.490;22.098;2022-12-07T16:29:19;12.04;79.27
70826;SHT31;58446;41.490;22.098;2022-12-07T16:31:45;12.10;79.08
70826;SHT31;58446;41.490;22.098;2022-12-07T16:34:11;12.11;79.05
70826;SHT31;58446;41.490;22.098;2022-12-07T16:36:37;12.10;79.03
70826;SHT31;58446;41.490;22.098;2022-12-07T16:39:03;12.13;78.87
70826;SHT31;58446;41.490;22.098;2022-12-07T16:41:29;12.08;79.33
70826;SHT31;58446;41.490;22.098;2022-12-07T16:43:55;12.10;79.31
70826;SHT31;58446;41.490;22.098;2022-12-07T16:46:21;12.04;79.57
70826;SHT31;58446;41.490;22.098;2022-12-07T16:48:46;12.05;79.58
70826;SHT31;58446;41.490;22.098;2022-12-07T16:51:13;12.04;79.62
70826;SHT31;58446;41.490;22.098;2022-12-07T16:53:40;12.01;79.42
70826;SHT31;58446;41.490;22.098;2022-12-07T16:56:11;12.02;79.58
70826;SHT31;58446;41.490;22.098;2022-12-07T16:58:37;12.05;79.54
70826;SHT31;58446;41.490;22.098;2022-12-07T17:01:11;12.17;78.65
70826;SHT31;58446;41.490;22.098;2022-12-07T17:03:37;12.21;78.31
70826;SHT31;58446;41.490;22.098;2022-12-07T17:06:02;12.22;78.39
70826;SHT31;58446;41.490;22.098;2022-12-07T17:08:28;12.15;78.62
70826;SHT31;58446;41.490;22.098;2022-12-07T17:10:53;12.04;79.09
70826;SHT31;58446;41.490;22.098;2022-12-07T17:13:19;12.01;78.85
70826;SHT31;58446;41.490;22.098;2022-12-07T17:16:05;11.95;79.07
70826;SHT31;58446;41.490;22.098;2022-12-07T17:18:33;11.78;79.39
70826;SHT31;58446;41.490;22.098;2022-12-07T17:21:04;11.78;79.64
70826;SHT31;58446;41.490;22.098;2022-12-07T17:23:31;11.84;79.65
70826;SHT31;58446;41.490;22.098;2022-12-07T17:26:04;11.81;79.74
70826;SHT31;58446;41.490;22.098;2022-12-07T17:28:30;11.84;79.69
70826;SHT31;58446;41.490;22.098;2022-12-07T17:30:56;11.77;80.20
70826;SHT31;58446;41.490;22.098;2022-12-07T17:33:21;11.73;80.45
70826;SHT31;58446;41.490;22.098;2022-12-07T17:35:47;11.67;80.74
70826;SHT31;58446;41.490;22.098;2022-12-07T17:38:13;11.60;80.94
70826;SHT31;58446;41.490;22.098;2022-12-07T17:40:38;11.57;81.15
70826;SHT31;58446;41.490;22.098;2022-12-07T17:43:04;11.57;81.20
70826;SHT31;58446;41.490;22.098;2022-12-07T17:45:30;11.47;81.65